Time;durP1;ratioP1;P1;durP2;ratioP2;P2;SDS_P1;SDS_P2;PMS_P1;PMS_P2;Temp;Humidity;BMP_temperature;BMP_pressure;BME280_temperature;BME280_humidity;BME280_pressure;Samples;Min_cycle;Max_cycle;Signal;HPM_P1;HPM_P2
2023/10/14 00:02:11;;;;;;;25.35;15.07;;;18.60;99.90;;;;;;5075555;28;20029;-68
2023/10/14 00:04:37;;;;;;;28.55;13.90;;;18.60;99.90;;;;;;5074904;28;20113;-68
2023/10/14 00:07:08;;;;;;;24.23;14.77;;;18.60;99.90;;;;;;5075294;28;20025;-68
2023/10/14 00:09:35;;;;;;;24.85;14.70;;;18.50;99.90;;;;;;5074917;28;20110;-68
2023/10/14 00:12:04;;;;;;;26.20;14.30;;;18.40;99.90;;;;;;5075289;28;20068;-68
2023/10/14 00:14:31;;;;;;;24.73;14.45;;;18.40;99.90;;;;;;5074606;28;20101;-66
2023/10/14 00:16:57;;;;;;;27.40;14.52;;;18.30;99.90;;;;;;5075092;28;20033;-67
2023/10/14 00:19:24;;;;;;;27.20;14.60;;;18.30;99.90;;;;;;5074527;28;20040;-68
2023/10/14 00:21:50;;;;;;;23.40;14.45;;;18.20;99.90;;;;;;5074937;28;20028;-68
2023/10/14 00:24:26;;;;;;;22.35;13.52;;;18.20;99.90;;;;;;5074499;28;20476;-67
2023/10/14 00:26:55;;;;;;;27.55;15.02;;;18.20;99.90;;;;;;5074759;28;20029;-67
2023/10/14 00:29:21;;;;;;;26.65;15.07;;;18.20;99.90;;;;;;5074012;28;20548;-67
2023/10/14 00:31:49;;;;;;;31.02;15.00;;;18.20;99.90;;;;;;5075705;28;20108;-66
2023/10/14 00:34:15;;;;;;;28.98;15.27;;;18.20;99.90;;;;;;5094940;28;20446;-66
2023/10/14 00:36:42;;;;;;;26.90;16.70;;;18.10;99.90;;;;;;5094365;28;20028;-66
2023/10/14 00:39:23;;;;;;;27.38;15.43;;;18.10;99.90;;;;;;5094842;28;20046;-67
2023/10/14 00:41:50;;;;;;;27.40;15.98;;;18.00;99.90;;;;;;5094910;28;20103;-67
2023/10/14 00:44:16;;;;;;;25.42;16.33;;;18.10;99.90;;;;;;5094802;28;20107;-67
2023/10/14 00:46:49;;;;;;;24.90;16.38;;;18.10;99.90;;;;;;5094230;28;20389;-67
2023/10/14 00:49:16;;;;;;;28.98;16.40;;;18.00;99.90;;;;;;5094533;28;20452;-67
2023/10/14 00:51:42;;;;;;;24.88;15.82;;;18.10;99.90;;;;;;5094107;28;20055;-67
2023/10/14 00:57:05;;;;;;;30.42;16.27;;;17.90;99.90;;;;;;5094527;28;20373;-68
2023/10/14 00:59:30;;;;;;;26.13;16.45;;;17.90;99.90;;;;;;5095057;28;20081;-68
2023/10/14 01:01:58;;;;;;;26.38;16.88;;;17.80;99.90;;;;;;5094763;28;20032;-68
2023/10/14 01:04:32;;;;;;;25.27;15.93;;;17.80;99.90;;;;;;5094165;28;20467;-68
2023/10/14 01:09:49;;;;;;;28.40;16.98;;;17.80;99.90;;;;;;5093784;28;20384;-67
2023/10/14 01:12:16;;;;;;;30.95;17.80;;;17.80;99.90;;;;;;5093875;28;20032;-67
2023/10/14 01:14:46;;;;;;;29.98;18.13;;;17.80;99.90;;;;;;5093600;28;20042;-67
2023/10/14 01:17:24;;;;;;;30.65;17.50;;;17.70;99.90;;;;;;5094251;28;20024;-66
2023/10/14 01:19:50;;;;;;;24.80;17.35;;;17.80;99.90;;;;;;5094162;28;20028;-67
2023/10/14 01:22:16;;;;;;;30.77;18.15;;;17.70;99.90;;;;;;5093785;28;20038;-68
2023/10/14 01:24:42;;;;;;;29.98;18.52;;;17.70;99.90;;;;;;5093299;28;20528;-68
2023/10/14 01:27:09;;;;;;;25.27;17.63;;;17.70;99.90;;;;;;5093619;28;20058;-67
2023/10/14 01:29:41;;;;;;;30.25;18.40;;;17.70;99.90;;;;;;5093384;28;20034;-68
2023/10/14 01:32:25;;;;;;;29.40;19.33;;;17.70;99.90;;;;;;5075876;28;20465;-66
2023/10/14 01:35:02;;;;;;;32.70;18.83;;;17.60;99.90;;;;;;5073186;28;20393;-66
2023/10/14 01:37:34;;;;;;;33.60;18.05;;;17.60;99.90;;;;;;5073063;28;20052;-66
2023/10/14 01:40:24;;;;;;;29.33;18.10;;;17.60;99.90;;;;;;5073350;28;20037;-66
2023/10/14 01:42:57;;;;;;;30.40;19.23;;;17.60;99.90;;;;;;5073308;28;20116;-67
2023/10/14 01:45:39;;;;;;;31.27;19.48;;;17.50;99.90;;;;;;5073101;28;20039;-67
2023/10/14 01:48:12;;;;;;;33.50;18.88;;;17.50;99.90;;;;;;5073231;28;20522;-66
2023/10/14 01:50:46;;;;;;;30.05;18.15;;;17.40;99.90;;;;;;5072756;28;20020;-66
2023/10/14 01:53:21;;;;;;;30.33;19.02;;;17.40;99.90;;;;;;5075855;28;20029;-66
2023/10/14 01:55:47;;;;;;;30.75;19.00;;;17.40;99.90;;;;;;5072387;28;20037;-68
2023/10/14 01:58:21;;;;;;;33.33;19.88;;;17.30;99.90;;;;;;5073190;28;20489;-68
2023/10/14 02:00:52;;;;;;;31.95;19.05;;;17.30;99.90;;;;;;5072696;28;20032;-68
2023/10/14 02:03:20;;;;;;;30.83;20.10;;;17.30;99.90;;;;;;5073249;28;20059;-68
2023/10/14 02:05:46;;;;;;;36.53;20.73;;;17.30;99.90;;;;;;5072631;28;20107;-67
2023/10/14 02:08:15;;;;;;;30.73;19.52;;;17.30;99.90;;;;;;5071682;28;20107;-66
2023/10/14 02:10:51;;;;;;;36.22;20.17;;;17.20;99.90;;;;;;5072296;28;20453;-66
2023/10/14 02:13:18;;;;;;;37.80;20.15;;;17.20;99.90;;;;;;5073127;28;20038;-66
2023/10/14 02:15:47;;;;;;;30.52;19.67;;;17.20;99.90;;;;;;5072499;28;20040;-66
2023/10/14 02:18:20;;;;;;;33.53;19.80;;;17.10;99.90;;;;;;5072868;28;20054;-66
2023/10/14 02:20:56;;;;;;;34.92;19.30;;;17.10;99.90;;;;;;5072603;28;20192;-68
2023/10/14 02:23:43;;;;;;;33.15;19.60;;;17.10;99.90;;;;;;5072969;28;20108;-67
2023/10/14 02:26:16;;;;;;;31.30;19.73;;;17.00;99.90;;;;;;5072827;28;20116;-67
2023/10/14 02:28:45;;;;;;;30.98;17.15;;;16.90;99.90;;;;;;5072862;28;20025;-68
2023/10/14 02:31:20;;;;;;;28.48;15.65;;;16.90;99.90;;;;;;5073162;28;20020;-68
2023/10/14 02:33:47;;;;;;;26.52;14.30;;;16.90;99.90;;;;;;5086837;28;20407;-68
2023/10/14 02:36:16;;;;;;;20.42;13.70;;;16.80;99.90;;;;;;5094341;28;20392;-68
2023/10/14 02:38:44;;;;;;;23.27;14.20;;;16.70;99.90;;;;;;5093849;28;20032;-68
2023/10/14 02:41:10;;;;;;;18.52;13.07;;;16.70;99.90;;;;;;5094346;28;20028;-68
2023/10/14 02:43:39;;;;;;;23.23;13.77;;;16.60;99.90;;;;;;5093827;28;20034;-67
2023/10/14 02:46:04;;;;;;;27.48;14.52;;;16.60;99.90;;;;;;5093972;28;20036;-68
2023/10/14 02:48:52;;;;;;;22.15;13.45;;;16.60;99.90;;;;;;5092845;28;20475;-67
2023/10/14 02:51:16;;;;;;;18.98;12.68;;;16.50;99.90;;;;;;5092589;28;20032;-67
2023/10/14 02:53:43;;;;;;;27.67;13.52;;;16.50;99.90;;;;;;5092188;28;20035;-67
2023/10/14 02:56:20;;;;;;;23.33;13.63;;;16.50;99.90;;;;;;5092546;28;20040;-67
2023/10/14 02:58:46;;;;;;;22.00;13.68;;;16.50;99.90;;;;;;5091818;28;20465;-67
2023/10/14 03:01:12;;;;;;;23.52;13.25;;;16.50;99.90;;;;;;5092454;28;20063;-67
2023/10/14 03:03:42;;;;;;;27.33;14.25;;;16.50;99.90;;;;;;5092279;28;20028;-68
2023/10/14 03:06:14;;;;;;;19.45;13.40;;;16.50;99.90;;;;;;5092495;28;20028;-68
2023/10/14 03:08:41;;;;;;;26.88;14.55;;;16.50;99.90;;;;;;5092139;28;20460;-67
2023/10/14 03:11:16;;;;;;;21.65;14.02;;;16.50;99.90;;;;;;5092583;28;20057;-68
2023/10/14 03:13:42;;;;;;;26.23;14.48;;;16.50;99.90;;;;;;5092177;28;20073;-67
2023/10/14 03:16:07;;;;;;;21.33;14.05;;;16.50;99.90;;;;;;5092408;28;20411;-68
2023/10/14 03:18:39;;;;;;;23.33;13.73;;;16.50;99.90;;;;;;5091863;28;20030;-67
2023/10/14 03:21:09;;;;;;;23.13;14.32;;;16.50;99.90;;;;;;5095561;28;20386;-67
2023/10/14 03:23:35;;;;;;;25.52;15.02;;;16.40;99.90;;;;;;5095859;28;20380;-67
2023/10/14 03:26:11;;;;;;;26.15;14.90;;;16.40;99.90;;;;;;5096434;28;20043;-67
2023/10/14 03:28:37;;;;;;;26.02;16.10;;;16.40;99.90;;;;;;5095880;28;20028;-68
2023/10/14 03:31:08;;;;;;;27.65;16.42;;;16.40;99.90;;;;;;5090674;28;20024;-67
2023/10/14 03:33:43;;;;;;;32.17;18.30;;;16.40;99.90;;;;;;5096157;28;20024;-67
2023/10/14 03:36:15;;;;;;;33.65;18.73;;;16.40;99.90;;;;;;5096042;28;20055;-68
2023/10/14 03:38:42;;;;;;;34.35;21.55;;;16.40;99.90;;;;;;5095630;28;20085;-67
2023/10/14 03:41:19;;;;;;;33.35;20.25;;;16.40;99.90;;;;;;5095941;28;20074;-67
2023/10/14 03:46:42;;;;;;;37.15;21.17;;;16.40;99.90;;;;;;5095887;28;20035;-67
2023/10/14 03:49:25;;;;;;;34.17;20.60;;;16.40;99.90;;;;;;5095745;28;20032;-67
2023/10/14 03:51:56;;;;;;;36.50;20.52;;;16.40;99.90;;;;;;5095420;28;20028;-67
2023/10/14 03:54:30;;;;;;;38.08;23.30;;;16.40;99.90;;;;;;5095703;28;20059;-67
2023/10/14 03:57:03;;;;;;;32.33;21.10;;;16.40;99.90;;;;;;5095327;28;20035;-67
2023/10/14 03:59:33;;;;;;;35.75;21.70;;;16.40;99.90;;;;;;5095998;28;20425;-67
2023/10/14 04:02:07;;;;;;;37.85;22.77;;;16.30;99.90;;;;;;5092507;28;20078;-67
2023/10/14 04:04:34;;;;;;;36.45;22.90;;;16.30;99.90;;;;;;5095896;28;20024;-66
2023/10/14 04:09:38;;;;;;;41.45;24.27;;;16.30;99.90;;;;;;5095398;28;20032;-66
2023/10/14 04:14:54;;;;;;;33.47;21.88;;;16.30;99.90;;;;;;5094856;28;20128;-66
2023/10/14 04:17:22;;;;;;;38.05;23.25;;;16.30;99.90;;;;;;5095383;28;20453;-67
2023/10/14 04:19:53;;;;;;;34.05;23.20;;;16.30;99.90;;;;;;5094816;28;20073;-68
2023/10/14 04:24:50;;;;;;;36.97;23.67;;;16.20;99.90;;;;;;5094211;28;20111;-68
2023/10/14 04:29:58;;;;;;;41.25;24.60;;;16.20;99.90;;;;;;5094031;28;20117;-67
2023/10/14 04:32:42;;;;;;;36.05;24.52;;;16.20;99.90;;;;;;5094882;28;20035;-67
2023/10/14 04:35:08;;;;;;;36.33;23.90;;;16.20;99.90;;;;;;5095090;28;20040;-67
2023/10/14 04:37:51;;;;;;;38.88;24.70;;;16.20;99.90;;;;;;5094904;28;20354;-68
2023/10/14 04:43:37;;;;;;;42.13;24.48;;;16.10;99.90;;;;;;5094457;28;20035;-67
2023/10/14 04:46:16;;;;;;;35.42;23.88;;;16.10;99.90;;;;;;5094652;28;20059;-67
2023/10/14 04:48:59;;;;;;;42.50;24.98;;;16.10;99.90;;;;;;5094287;28;20062;-67
2023/10/14 04:51:34;;;;;;;42.60;24.10;;;16.10;99.90;;;;;;5094761;28;20024;-67
2023/10/14 04:54:00;;;;;;;37.83;23.25;;;16.10;99.90;;;;;;5094088;28;20461;-67
2023/10/14 04:56:32;;;;;;;36.25;23.92;;;16.10;99.90;;;;;;5094337;28;20039;-67
2023/10/14 04:58:59;;;;;;;36.42;24.17;;;16.00;99.90;;;;;;5093511;28;20060;-67
2023/10/14 05:01:24;;;;;;;41.15;25.23;;;16.00;99.90;;;;;;5093103;28;20491;-67
2023/10/14 05:03:57;;;;;;;39.03;24.73;;;16.00;99.90;;;;;;5093859;28;20103;-67
2023/10/14 05:06:29;;;;;;;44.72;25.70;;;16.00;99.90;;;;;;5094500;28;20424;-67
2023/10/14 05:08:55;;;;;;;38.63;25.83;;;15.90;99.90;;;;;;5093827;28;20107;-67
2023/10/14 05:11:25;;;;;;;40.30;26.23;;;15.90;99.90;;;;;;5093834;28;20039;-67
2023/10/14 05:14:14;;;;;;;35.60;24.45;;;15.90;99.90;;;;;;5093799;28;20373;-67
2023/10/14 05:16:55;;;;;;;42.20;25.77;;;16.00;99.90;;;;;;5093773;28;20032;-67
2023/10/14 05:19:29;;;;;;;42.30;25.10;;;15.90;99.90;;;;;;5094116;28;20066;-67
2023/10/14 05:22:12;;;;;;;40.05;24.92;;;15.90;99.90;;;;;;5093622;28;20028;-68
2023/10/14 05:24:45;;;;;;;39.28;25.38;;;15.90;99.90;;;;;;5093984;28;20095;-67
2023/10/14 05:27:11;;;;;;;40.78;25.80;;;15.90;99.90;;;;;;5094201;28;20028;-67
2023/10/14 05:29:37;;;;;;;49.20;24.70;;;15.90;99.90;;;;;;5093831;28;20043;-67
2023/10/14 05:32:15;;;;;;;41.10;25.02;;;15.90;99.90;;;;;;5093368;28;20028;-67
2023/10/14 05:34:44;;;;;;;41.70;26.10;;;15.80;99.90;;;;;;5075126;28;20449;-70
2023/10/14 05:37:11;;;;;;;47.92;27.00;;;15.80;99.90;;;;;;5073392;28;20385;-66
2023/10/14 05:39:38;;;;;;;36.90;25.42;;;15.80;99.90;;;;;;5073353;28;20361;-67
2023/10/14 05:42:20;;;;;;;46.25;24.80;;;15.90;99.90;;;;;;5072698;28;20025;-67
2023/10/14 05:44:57;;;;;;;39.03;24.15;;;15.90;99.90;;;;;;5072913;28;20033;-67
2023/10/14 05:47:27;;;;;;;42.95;25.10;;;16.00;99.90;;;;;;5073474;28;20476;-67
2023/10/14 05:49:53;;;;;;;37.55;23.80;;;16.00;99.90;;;;;;5072769;28;20031;-68
2023/10/14 05:52:23;;;;;;;33.72;23.27;;;16.10;99.90;;;;;;5072941;28;20108;-68
2023/10/14 05:54:49;;;;;;;36.72;23.20;;;16.10;99.90;;;;;;5072715;28;20062;-68
2023/10/14 05:57:20;;;;;;;37.63;22.25;;;16.20;99.90;;;;;;5073831;28;20022;-67
2023/10/14 05:59:48;;;;;;;39.65;23.50;;;16.20;99.90;;;;;;5072936;28;20107;-67
2023/10/14 06:02:14;;;;;;;34.30;22.15;;;16.20;99.90;;;;;;5073060;28;20039;-68
2023/10/14 06:04:40;;;;;;;36.30;23.77;;;16.20;99.90;;;;;;5072722;28;20101;-67
2023/10/14 06:07:14;;;;;;;40.30;23.77;;;16.30;99.90;;;;;;5072424;28;20052;-67
2023/10/14 06:09:45;;;;;;;40.53;23.95;;;16.20;99.90;;;;;;5072527;28;20465;-67
2023/10/14 06:12:14;;;;;;;38.20;24.98;;;16.20;99.90;;;;;;5073196;28;20100;-66
2023/10/14 06:14:47;;;;;;;41.40;24.85;;;16.20;99.90;;;;;;5075116;28;20044;-67
2023/10/14 06:17:14;;;;;;;44.58;24.70;;;16.20;99.90;;;;;;5073269;28;20028;-66
2023/10/14 06:19:39;;;;;;;38.95;24.42;;;16.20;99.90;;;;;;5073173;28;20032;-66
2023/10/14 06:22:07;;;;;;;44.17;23.35;;;16.20;99.90;;;;;;5073304;28;20384;-66
2023/10/14 06:24:34;;;;;;;39.88;23.50;;;16.20;99.90;;;;;;5093246;28;20376;-67
2023/10/14 06:27:09;;;;;;;43.45;24.42;;;16.20;99.90;;;;;;5092791;28;20028;-66
2023/10/14 06:29:35;;;;;;;39.33;24.17;;;16.20;99.90;;;;;;5093178;28;20021;-66
2023/10/14 06:32:02;;;;;;;40.95;24.38;;;16.20;99.90;;;;;;5092600;28;20035;-65
2023/10/14 06:34:28;;;;;;;40.28;24.95;;;16.10;99.90;;;;;;5093042;28;20043;-66
2023/10/14 06:36:53;;;;;;;43.25;24.55;;;16.20;99.90;;;;;;5092514;28;20385;-67
2023/10/14 06:39:26;;;;;;;39.67;23.35;;;16.30;99.90;;;;;;5091719;28;20035;-66
2023/10/14 06:41:52;;;;;;;35.30;22.30;;;16.40;99.90;;;;;;5088898;28;20020;-66
2023/10/14 06:44:21;;;;;;;31.67;21.33;;;16.40;99.90;;;;;;5080930;28;20093;-66
2023/10/14 06:46:47;;;;;;;34.28;21.50;;;16.50;99.90;;;;;;5092513;28;20035;-66
2023/10/14 06:49:16;;;;;;;38.97;23.20;;;16.70;99.90;;;;;;5092060;28;20028;-65
2023/10/14 06:51:45;;;;;;;33.85;20.83;;;16.70;99.90;;;;;;5092921;28;20043;-65
2023/10/14 06:54:13;;;;;;;32.33;19.85;;;16.80;99.90;;;;;;5094166;28;20125;-66
2023/10/14 06:56:44;;;;;;;37.17;22.42;;;16.80;99.90;;;;;;5096667;28;20318;-65
2023/10/14 06:59:13;;;;;;;33.85;22.33;;;16.90;99.90;;;;;;5096597;28;20078;-65
2023/10/14 07:01:39;;;;;;;34.33;21.65;;;16.90;99.90;;;;;;5095311;28;20028;-65
2023/10/14 07:04:05;;;;;;;37.15;23.40;;;17.00;99.90;;;;;;5092198;28;20032;-65
2023/10/14 07:06:31;;;;;;;35.60;22.17;;;17.00;99.90;;;;;;5076472;28;20090;-65
2023/10/14 07:08:56;;;;;;;34.40;21.48;;;17.10;99.90;;;;;;5089458;28;20027;-65
2023/10/14 07:11:22;;;;;;;35.08;22.40;;;17.10;99.90;;;;;;5092258;28;20426;-65
2023/10/14 07:13:48;;;;;;;37.22;22.30;;;17.10;99.90;;;;;;5096992;28;20035;-64
2023/10/14 07:16:13;;;;;;;32.47;20.80;;;17.20;99.90;;;;;;5096800;28;20028;-64
2023/10/14 07:18:40;;;;;;;38.83;20.58;;;17.40;99.90;;;;;;5096517;28;20020;-64
2023/10/14 07:21:12;;;;;;;33.17;20.58;;;17.60;99.90;;;;;;5096027;28;20047;-65
2023/10/14 07:23:38;;;;;;;31.63;20.65;;;17.80;99.90;;;;;;5090192;28;20024;-65
2023/10/14 07:26:11;;;;;;;29.55;20.23;;;18.00;99.90;;;;;;5089765;28;20487;-65
2023/10/14 07:28:51;;;;;;;28.38;20.60;;;18.30;99.90;;;;;;5096045;28;20472;-66
2023/10/14 07:31:17;;;;;;;30.48;18.45;;;18.50;99.90;;;;;;5096190;28;20315;-65
2023/10/14 07:33:43;;;;;;;32.13;19.23;;;18.70;99.90;;;;;;5080368;28;20462;-65
2023/10/14 07:36:11;;;;;;;29.73;18.90;;;18.80;99.90;;;;;;5075267;28;20037;-65
2023/10/14 07:38:37;;;;;;;28.52;19.90;;;19.00;99.90;;;;;;5077987;28;20024;-66
2023/10/14 07:41:05;;;;;;;30.50;19.67;;;19.10;99.90;;;;;;5083851;28;20104;-65
2023/10/14 07:43:33;;;;;;;30.80;19.80;;;19.20;99.90;;;;;;5075592;28;20030;-64
2023/10/14 07:46:00;;;;;;;26.00;18.45;;;19.50;99.90;;;;;;5075129;28;20032;-66
2023/10/14 07:48:27;;;;;;;31.83;18.98;;;19.70;99.90;;;;;;5075497;28;20043;-65
2023/10/14 07:50:56;;;;;;;29.38;18.63;;;19.90;99.90;;;;;;5084314;28;20093;-65
2023/10/14 07:53:25;;;;;;;23.45;16.42;;;20.10;99.90;;;;;;5095778;28;20020;-65
2023/10/14 07:55:56;;;;;;;19.85;15.18;;;20.20;99.90;;;;;;5095586;28;20090;-66
2023/10/14 07:58:28;;;;;;;23.20;15.18;;;20.50;99.90;;;;;;5094707;28;20374;-67
2023/10/14 08:00:55;;;;;;;22.33;16.38;;;20.60;99.90;;;;;;5076904;28;20021;-66
2023/10/14 08:03:27;;;;;;;19.83;14.98;;;20.80;98.20;;;;;;5073921;28;20026;-65
2023/10/14 08:05:59;;;;;;;19.85;14.52;;;21.00;97.60;;;;;;5074948;28;20028;-68
2023/10/14 08:08:30;;;;;;;20.38;14.05;;;21.10;96.20;;;;;;5075531;28;20028;-65
2023/10/14 08:11:00;;;;;;;23.30;16.60;;;21.10;96.80;;;;;;5074811;28;20028;-66
2023/10/14 08:13:26;;;;;;;23.00;15.77;;;21.20;96.40;;;;;;5057699;28;20035;-67
2023/10/14 08:15:54;;;;;;;20.98;14.95;;;21.30;95.90;;;;;;5074922;28;20032;-67
2023/10/14 08:18:25;;;;;;;22.70;15.43;;;21.40;95.60;;;;;;5076021;28;20483;-67
2023/10/14 08:20:55;;;;;;;22.52;15.00;;;21.50;95.30;;;;;;5074989;28;20032;-66
2023/10/14 08:23:24;;;;;;;22.42;15.10;;;21.70;94.90;;;;;;5081563;28;20028;-67
2023/10/14 08:25:56;;;;;;;19.10;14.75;;;21.90;94.00;;;;;;5095033;28;20032;-67
2023/10/14 08:28:23;;;;;;;22.38;15.18;;;22.00;93.90;;;;;;5095114;28;20391;-68
2023/10/14 08:30:50;;;;;;;23.77;15.40;;;22.10;93.30;;;;;;5095059;28;20020;-71
2023/10/14 08:33:21;;;;;;;19.90;14.32;;;22.20;92.70;;;;;;5094831;28;20502;-74
2023/10/14 08:35:48;;;;;;;;;;;22.30;92.80;;;;;;5089900;28;20090;-73
2023/10/14 08:38:17;;;;;;;19.25;15.15;;;22.30;91.60;;;;;;5085644;28;19908;-74
2023/10/14 08:40:49;;;;;;;23.95;15.50;;;22.40;91.20;;;;;;5095158;28;20025;-73
2023/10/14 08:43:26;;;;;;;27.05;16.50;;;22.50;90.60;;;;;;5094900;28;20020;-73
2023/10/14 08:45:54;;;;;;;23.83;15.27;;;22.60;90.40;;;;;;5095247;28;20070;-73
2023/10/14 08:48:24;;;;;;;23.38;14.77;;;22.60;90.00;;;;;;5094552;28;20474;-73
2023/10/14 08:50:53;;;;;;;26.73;15.67;;;22.70;88.50;;;;;;5093550;28;20035;-73
2023/10/14 08:53:22;;;;;;;26.63;15.40;;;22.80;88.30;;;;;;5094278;28;20415;-72
2023/10/14 08:55:49;;;;;;;26.55;15.27;;;22.90;88.00;;;;;;5089131;28;20048;-72
2023/10/14 08:58:14;;;;;;;21.65;14.73;;;22.90;86.60;;;;;;5073508;28;20382;-72
2023/10/14 09:00:42;;;;;;;26.00;14.23;;;23.00;86.50;;;;;;5074569;28;20035;-72
2023/10/14 09:03:09;;;;;;;21.77;14.18;;;23.00;85.10;;;;;;5073767;28;20465;-67
2023/10/14 09:05:40;;;;;;;24.15;13.98;;;23.10;83.90;;;;;;5074064;28;20043;-68
2023/10/14 09:08:10;;;;;;;21.95;14.32;;;23.10;83.60;;;;;;5073637;28;20051;-67
2023/10/14 09:10:36;;;;;;;21.38;13.88;;;23.30;84.00;;;;;;5076467;28;20077;-67
2023/10/14 09:13:08;;;;;;;22.83;13.82;;;23.40;83.20;;;;;;5074051;28;20028;-68
2023/10/14 09:15:42;;;;;;;20.92;12.85;;;23.50;82.50;;;;;;5083599;28;20075;-67
2023/10/14 09:18:13;;;;;;;20.20;13.38;;;23.60;82.30;;;;;;5090615;28;20032;-68
2023/10/14 09:20:40;;;;;;;19.00;12.93;;;23.80;81.70;;;;;;5091484;28;20036;-68
2023/10/14 09:23:19;;;;;;;19.83;11.45;;;23.90;81.10;;;;;;5072794;28;20059;-68
2023/10/14 09:25:52;;;;;;;21.02;11.60;;;24.00;79.80;;;;;;5081536;28;20395;-68
2023/10/14 09:28:22;;;;;;;21.65;12.68;;;24.20;79.10;;;;;;5083698;28;20074;-68
2023/10/14 09:30:52;;;;;;;17.02;11.50;;;24.30;77.30;;;;;;5082161;28;20033;-68
2023/10/14 09:33:20;;;;;;;17.23;11.70;;;24.30;76.50;;;;;;5080881;28;20058;-68
2023/10/14 09:35:50;;;;;;;15.50;11.75;;;24.50;76.70;;;;;;5082546;28;20052;-68
2023/10/14 09:38:21;;;;;;;19.83;10.00;;;24.60;76.70;;;;;;5082183;28;20028;-68
2023/10/14 09:40:55;;;;;;;15.88;10.65;;;24.80;76.20;;;;;;5082165;28;20120;-68
2023/10/14 09:43:25;;;;;;;16.42;10.27;;;24.90;75.80;;;;;;5081356;28;20543;-68
2023/10/14 09:45:56;;;;;;;15.40;9.50;;;25.10;74.70;;;;;;5083305;28;20085;-68
2023/10/14 09:48:29;;;;;;;;;;;25.20;73.80;;;;;;5082022;28;20349;-69
2023/10/14 09:51:00;;;;;;;14.60;9.43;;;25.20;71.90;;;;;;5083667;28;19929;-68
2023/10/14 09:53:32;;;;;;;13.13;8.85;;;25.30;72.70;;;;;;5080396;28;20028;-68
2023/10/14 09:56:10;;;;;;;20.20;9.43;;;25.40;72.00;;;;;;5082036;28;20116;-67
2023/10/14 09:58:43;;;;;;;14.70;8.50;;;25.50;71.30;;;;;;5083121;28;20087;-67
2023/10/14 10:01:18;;;;;;;14.80;9.35;;;25.60;73.00;;;;;;5074568;28;20032;-68
2023/10/14 10:04:06;;;;;;;13.40;9.15;;;25.70;72.80;;;;;;5080259;28;20097;-68
2023/10/14 10:06:47;;;;;;;19.35;9.15;;;25.80;69.90;;;;;;5069076;28;20090;-68
2023/10/14 10:09:45;;;;;;;15.38;7.18;;;25.90;68.30;;;;;;5070855;28;20029;-69
2023/10/14 10:12:12;;;;;;;14.80;7.60;;;26.00;68.20;;;;;;5071634;28;20410;-69
2023/10/14 10:14:44;;;;;;;16.77;6.80;;;26.20;69.30;;;;;;5071027;28;20123;-68
2023/10/14 10:17:11;;;;;;;11.80;6.10;;;26.30;67.40;;;;;;5073798;28;20090;-67
2023/10/14 10:20:16;;;;;;;9.52;5.43;;;26.30;62.90;;;;;;5075412;28;20089;-68
2023/10/14 10:22:55;;;;;;;9.05;3.45;;;26.30;62.20;;;;;;5084091;28;20032;-67
2023/10/14 10:25:47;;;;;;;5.22;3.13;;;26.30;55.60;;;;;;5072989;28;20109;-68
2023/10/14 10:28:27;;;;;;;9.32;2.83;;;26.30;55.20;;;;;;5082893;28;20020;-67
2023/10/14 10:31:04;;;;;;;5.57;2.72;;;26.30;53.80;;;;;;5072406;28;20033;-69
2023/10/14 10:33:52;;;;;;;7.45;2.83;;;26.30;53.00;;;;;;5080033;28;20028;-68
2023/10/14 10:36:37;;;;;;;8.32;2.83;;;26.30;53.00;;;;;;5084592;28;20540;-69
2023/10/14 10:39:15;;;;;;;5.43;2.80;;;26.20;52.80;;;;;;5075511;28;20485;-68
2023/10/14 10:41:41;;;;;;;5.22;2.72;;;26.10;53.40;;;;;;5072921;28;20033;-69
2023/10/14 10:44:09;;;;;;;5.38;2.50;;;26.10;53.20;;;;;;5078318;28;20024;-69
2023/10/14 10:46:41;;;;;;;8.75;3.10;;;26.10;53.30;;;;;;5083240;28;20388;-69
2023/10/14 10:49:10;;;;;;;7.60;3.13;;;26.10;53.50;;;;;;5080366;28;20032;-69
2023/10/14 10:51:41;;;;;;;5.70;2.75;;;26.20;52.50;;;;;;5092646;28;20057;-68
2023/10/14 10:54:10;;;;;;;5.57;2.95;;;26.10;52.70;;;;;;5072278;28;20036;-70
2023/10/14 10:56:36;;;;;;;8.25;2.72;;;26.20;52.40;;;;;;5072078;28;20094;-68
2023/10/14 10:59:04;;;;;;;5.28;2.70;;;26.20;52.30;;;;;;5072551;28;20045;-68
2023/10/14 11:01:33;;;;;;;6.20;2.78;;;26.20;52.30;;;;;;5071843;28;20454;-68
2023/10/14 11:04:08;;;;;;;6.10;2.55;;;26.20;52.90;;;;;;5072338;28;20067;-67
2023/10/14 11:06:35;;;;;;;9.65;2.80;;;26.20;52.30;;;;;;5072299;28;20056;-69
2023/10/14 11:09:03;;;;;;;8.82;3.15;;;26.20;52.20;;;;;;5072256;28;20086;-68
2023/10/14 11:11:33;;;;;;;6.32;3.15;;;26.20;52.00;;;;;;5075430;28;20441;-69
2023/10/14 11:14:00;;;;;;;8.13;2.88;;;26.20;51.60;;;;;;5072689;28;20032;-69
2023/10/14 11:16:28;;;;;;;7.05;2.38;;;26.20;51.50;;;;;;5071808;28;20035;-69
2023/10/14 11:18:54;;;;;;;6.97;2.90;;;26.20;51.20;;;;;;5078499;28;20115;-69
2023/10/14 11:21:21;;;;;;;8.55;2.83;;;26.10;51.60;;;;;;5090773;28;20031;-69
2023/10/14 11:23:47;;;;;;;6.32;2.55;;;26.10;52.20;;;;;;5084702;28;20116;-69
2023/10/14 11:26:16;;;;;;;5.72;2.33;;;26.20;52.00;;;;;;5078584;28;20028;-69
2023/10/14 11:28:45;;;;;;;5.90;2.67;;;26.20;51.90;;;;;;5090426;28;20029;-68
2023/10/14 11:31:11;;;;;;;4.35;2.53;;;26.20;51.50;;;;;;5082467;28;20108;-68
2023/10/14 11:33:37;;;;;;;7.75;2.50;;;26.10;51.10;;;;;;5077709;28;20123;-69
2023/10/14 11:36:06;;;;;;;7.10;2.40;;;26.10;52.10;;;;;;5077863;28;20512;-68
2023/10/14 11:38:41;;;;;;;14.30;2.70;;;26.10;51.80;;;;;;5091840;28;20459;-71
2023/10/14 11:41:10;;;;;;;5.63;2.53;;;26.10;51.60;;;;;;5094876;28;20021;-68
2023/10/14 11:43:35;;;;;;;8.43;2.65;;;26.10;52.00;;;;;;5094467;28;20429;-69
2023/10/14 11:46:01;;;;;;;8.10;2.50;;;26.10;51.30;;;;;;5095815;28;20063;-67
2023/10/14 11:48:33;;;;;;;3.33;2.10;;;26.10;51.70;;;;;;5083744;28;20037;-68
2023/10/14 11:51:01;;;;;;;4.80;2.58;;;26.10;52.00;;;;;;5091554;28;20031;-68
2023/10/14 11:53:33;;;;;;;4.88;2.22;;;26.10;52.20;;;;;;5094740;28;20024;-68
2023/10/14 11:56:03;;;;;;;4.80;2.35;;;26.10;52.20;;;;;;5095261;28;20039;-68
2023/10/14 11:58:35;;;;;;;7.30;2.80;;;26.10;52.70;;;;;;5095004;28;20047;-68
2023/10/14 12:01:03;;;;;;;5.72;2.45;;;26.20;52.20;;;;;;5095260;28;20035;-68
2023/10/14 12:03:29;;;;;;;4.45;2.33;;;26.20;52.00;;;;;;5094935;28;20031;-67
2023/10/14 12:05:59;;;;;;;2.88;1.73;;;26.20;52.70;;;;;;5095110;28;20401;-68
2023/10/14 12:08:39;;;;;;;6.83;2.40;;;26.30;52.20;;;;;;5094612;28;20419;-69
2023/10/14 12:11:14;;;;;;;5.40;2.65;;;26.30;51.10;;;;;;5095098;28;20662;-67
2023/10/14 12:13:40;;;;;;;10.73;2.50;;;26.30;51.40;;;;;;5095010;28;20468;-68
2023/10/14 12:16:07;;;;;;;8.85;2.20;;;26.40;51.00;;;;;;5096338;28;20070;-68
2023/10/14 12:18:36;;;;;;;8.25;2.58;;;26.30;50.50;;;;;;5092455;28;20233;-75
2023/10/14 12:21:03;;;;;;;5.00;2.22;;;26.20;50.70;;;;;;5074381;28;20047;-72
2023/10/14 12:23:32;;;;;;;4.20;2.10;;;26.20;51.50;;;;;;5079686;28;20024;-72
2023/10/14 12:26:00;;;;;;;9.48;2.53;;;26.20;51.30;;;;;;5079471;28;20031;-73
2023/10/14 12:28:30;;;;;;;6.35;2.30;;;26.10;51.10;;;;;;5074086;28;20032;-73
2023/10/14 12:31:03;;;;;;;6.55;2.30;;;25.90;51.60;;;;;;5078076;28;20055;-71
2023/10/14 12:33:32;;;;;;;3.15;2.35;;;25.80;52.50;;;;;;5074364;28;20047;-76
2023/10/14 12:35:59;;;;;;;7.68;2.40;;;25.70;52.00;;;;;;5075149;28;20032;-75
2023/10/14 12:38:30;;;;;;;14.90;10.07;;;25.60;52.80;;;;;;5074384;28;20081;-69
2023/10/14 12:40:55;;;;;;;17.52;10.15;;;25.50;53.30;;;;;;5074689;28;20116;-70
2023/10/14 12:43:28;;;;;;;6.32;2.97;;;25.40;53.40;;;;;;5074154;28;20099;-69
2023/10/14 12:46:09;;;;;;;4.53;2.60;;;25.30;53.50;;;;;;5074587;28;20116;-69
2023/10/14 12:48:39;;;;;;;6.75;2.78;;;25.20;53.60;;;;;;5074143;28;20469;-70
2023/10/14 12:51:09;;;;;;;7.30;2.60;;;25.10;54.10;;;;;;5073616;28;20036;-73
2023/10/14 12:53:36;;;;;;;7.90;2.65;;;25.00;54.40;;;;;;5073964;28;20025;-70
2023/10/14 12:56:01;;;;;;;3.92;2.28;;;24.90;55.00;;;;;;5073880;28;20474;-70
2023/10/14 12:58:27;;;;;;;6.00;2.65;;;24.80;55.30;;;;;;5073494;28;20063;-71
2023/10/14 13:00:52;;;;;;;6.22;2.80;;;24.70;55.70;;;;;;5072982;28;20033;-71
2023/10/14 13:03:18;;;;;;;7.03;2.60;;;24.70;55.90;;;;;;5072368;28;20111;-72
2023/10/14 13:05:48;;;;;;;5.32;2.92;;;24.70;56.00;;;;;;5073943;28;20377;-72
2023/10/14 13:08:19;;;;;;;6.47;2.90;;;24.70;55.90;;;;;;5073764;28;20524;-72
2023/10/14 13:10:45;;;;;;;8.57;3.33;;;24.60;56.50;;;;;;5074072;28;20116;-71
2023/10/14 13:13:13;;;;;;;7.60;2.80;;;24.60;56.80;;;;;;5073737;28;20028;-71